createdAt,value
2019-02-02T00:01:12.445Z,21.00
2019-02-02T00:03:38.982Z,21.10
2019-02-02T00:06:05.821Z,21.10
2019-02-02T00:08:32.669Z,21.10
2019-02-02T00:10:59.506Z,21.10
2019-02-02T00:13:26.064Z,21.00
2019-02-02T00:15:52.550Z,21.00
2019-02-02T00:18:19.108Z,21.10
2019-02-02T00:20:45.643Z,21.00
2019-02-02T00:23:12.483Z,21.00
2019-02-02T00:25:39.024Z,21.10
2019-02-02T00:28:05.552Z,21.00
2019-02-02T00:30:32.089Z,21.00
2019-02-02T00:32:58.623Z,21.00
2019-02-02T00:35:25.464Z,21.00
2019-02-02T00:37:52.000Z,21.00
2019-02-02T00:40:18.841Z,21.00
2019-02-02T00:42:45.375Z,21.00
2019-02-02T00:45:12.217Z,21.00
2019-02-02T00:47:39.057Z,21.00
2019-02-02T00:50:05.593Z,21.00
2019-02-02T00:52:32.210Z,21.00
2019-02-02T00:54:58.968Z,21.00
2019-02-02T00:57:25.812Z,21.00
2019-02-02T00:59:52.350Z,21.00
2019-02-02T01:02:18.996Z,21.00
2019-02-02T01:04:45.721Z,20.90
2019-02-02T01:07:12.257Z,20.90
2019-02-02T01:09:38.791Z,20.90
2019-02-02T01:12:05.639Z,20.90
2019-02-02T01:14:32.476Z,20.90
2019-02-02T01:16:59.008Z,20.90
2019-02-02T01:19:25.549Z,20.90
2019-02-02T01:21:52.077Z,20.90
2019-02-02T01:24:18.919Z,20.90
2019-02-02T01:26:45.762Z,20.90
2019-02-02T01:29:12.294Z,20.90
2019-02-02T01:31:38.828Z,20.90
2019-02-02T01:34:05.363Z,20.90
2019-02-02T01:36:32.207Z,20.90
2019-02-02T01:38:58.741Z,20.90
2019-02-02T01:41:25.250Z,20.90
2019-02-02T01:43:51.808Z,20.90
2019-02-02T01:46:18.342Z,20.90
2019-02-02T01:48:45.185Z,20.90
2019-02-02T01:51:11.717Z,20.90
2019-02-02T01:53:38.572Z,20.90
2019-02-02T01:56:05.402Z,20.90
2019-02-02T01:58:31.940Z,20.90
2019-02-02T02:00:58.791Z,20.90
2019-02-02T02:03:25.314Z,20.90
2019-02-02T02:05:51.923Z,20.80
2019-02-02T02:08:18.696Z,20.80
2019-02-02T02:10:45.223Z,20.90
2019-02-02T02:13:12.372Z,20.90
2019-02-02T02:15:38.907Z,20.80
2019-02-02T02:18:05.749Z,20.80
2019-02-02T02:20:32.291Z,20.80
2019-02-02T02:22:58.793Z,20.80
2019-02-02T02:25:25.659Z,20.80
2019-02-02T02:27:52.193Z,20.80
2019-02-02T02:30:19.059Z,20.80
2019-02-02T02:32:45.569Z,20.80
2019-02-02T02:35:12.108Z,20.80
2019-02-02T02:37:38.947Z,20.80
2019-02-02T02:40:05.481Z,20.80
2019-02-02T02:42:32.015Z,20.80
2019-02-02T02:44:58.549Z,20.80
2019-02-02T02:47:25.085Z,20.80
2019-02-02T02:49:51.927Z,20.80
2019-02-02T02:52:18.437Z,20.80
2019-02-02T02:54:44.995Z,20.80
2019-02-02T02:57:11.846Z,20.80
2019-02-02T02:59:38.679Z,20.70
2019-02-02T03:02:05.520Z,20.70
2019-02-02T03:04:32.060Z,20.80
2019-02-02T03:06:58.898Z,20.70
2019-02-02T03:09:25.438Z,20.80
2019-02-02T03:11:52.275Z,20.70
2019-02-02T03:14:18.816Z,20.70
2019-02-02T03:16:45.342Z,20.70
2019-02-02T03:19:11.876Z,20.70
2019-02-02T03:21:38.413Z,20.70
2019-02-02T03:24:04.924Z,20.70
2019-02-02T03:26:31.557Z,20.70
2019-02-02T03:28:58.322Z,20.70
2019-02-02T03:31:24.856Z,20.70
2019-02-02T03:33:51.699Z,20.70
2019-02-02T03:36:18.226Z,20.70
2019-02-02T03:38:45.384Z,20.70
2019-02-02T03:41:11.917Z,20.70
2019-02-02T03:43:38.760Z,20.70
2019-02-02T03:46:05.602Z,20.70
2019-02-02T03:48:32.134Z,20.70
2019-02-02T03:50:58.975Z,20.70
2019-02-02T03:53:25.815Z,20.70
2019-02-02T03:55:52.352Z,20.70
2019-02-02T03:58:18.886Z,20.70
2019-02-02T04:00:45.421Z,20.70
2019-02-02T04:03:12.262Z,20.70
2019-02-02T04:05:39.103Z,20.70
2019-02-02T04:08:05.638Z,20.70
2019-02-02T04:10:32.199Z,20.60
2019-02-02T04:12:58.708Z,20.70
2019-02-02T04:15:25.550Z,20.60
2019-02-02T04:17:52.085Z,20.60
2019-02-02T04:20:18.622Z,20.60
2019-02-02T04:22:45.150Z,20.60
2019-02-02T04:25:11.664Z,20.60
2019-02-02T04:27:38.835Z,20.60
2019-02-02T04:30:05.370Z,20.60
2019-02-02T04:32:31.908Z,20.60
2019-02-02T04:34:58.746Z,20.60
2019-02-02T04:37:25.588Z,20.60
2019-02-02T04:39:52.429Z,20.60
2019-02-02T04:42:18.967Z,20.60
2019-02-02T04:44:45.409Z,20.60
2019-02-02T04:47:12.035Z,20.60
2019-02-02T04:49:38.567Z,20.60
2019-02-02T04:52:05.203Z,20.60
2019-02-02T04:54:31.945Z,20.60
2019-02-02T04:56:58.479Z,20.60
2019-02-02T04:59:29.304Z,20.60
2019-02-02T05:01:53.390Z,20.60
2019-02-02T05:04:20.232Z,20.60
2019-02-02T05:06:46.765Z,20.60
2019-02-02T05:09:13.608Z,20.50
2019-02-02T05:11:40.142Z,20.60
2019-02-02T05:14:06.677Z,20.50
2019-02-02T05:16:33.518Z,20.60
2019-02-02T05:19:00.360Z,20.50
2019-02-02T05:21:26.899Z,20.60
2019-02-02T05:23:53.737Z,20.50
2019-02-02T05:26:20.271Z,20.50
2019-02-02T05:28:46.884Z,20.50
2019-02-02T05:31:13.648Z,20.50
2019-02-02T05:33:40.182Z,20.50
2019-02-02T05:36:06.716Z,20.50
2019-02-02T05:38:33.560Z,20.50
2019-02-02T05:41:00.399Z,20.50
2019-02-02T05:43:26.942Z,20.50
2019-02-02T05:45:53.777Z,20.50
2019-02-02T05:48:20.617Z,20.50
2019-02-02T05:50:47.152Z,20.50
2019-02-02T05:53:13.993Z,20.50
2019-02-02T05:55:40.837Z,20.50
2019-02-02T05:58:07.393Z,20.50
2019-02-02T06:00:33.882Z,20.50
2019-02-02T06:03:00.442Z,20.50
2019-02-02T06:05:27.281Z,20.50
2019-02-02T06:07:53.818Z,20.50
2019-02-02T06:10:20.354Z,20.50
2019-02-02T06:12:46.883Z,20.50
2019-02-02T06:15:13.419Z,20.50
2019-02-02T06:17:40.260Z,20.50
2019-02-02T06:20:06.795Z,20.50
2019-02-02T06:22:33.329Z,20.50
2019-02-02T06:25:00.190Z,20.50
2019-02-02T06:27:26.704Z,20.50
2019-02-02T06:30:03.721Z,20.50
2019-02-02T06:32:21.622Z,20.40
2019-02-02T06:34:48.154Z,20.40
2019-02-02T06:37:14.689Z,20.40
2019-02-02T06:39:41.532Z,20.40
2019-02-02T06:42:08.372Z,20.40
2019-02-02T06:44:34.889Z,20.40
2019-02-02T06:47:01.444Z,20.40
2019-02-02T06:49:27.973Z,20.40
2019-02-02T06:51:54.815Z,20.40
2019-02-02T06:54:21.657Z,20.40
2019-02-02T06:56:48.190Z,20.40
2019-02-02T06:59:14.728Z,20.40
2019-02-02T07:01:41.263Z,20.40
2019-02-02T07:04:07.794Z,20.40
2019-02-02T07:06:34.637Z,20.40
2019-02-02T07:09:01.174Z,20.40
2019-02-02T07:11:27.705Z,20.40
2019-02-02T07:13:54.242Z,20.40
2019-02-02T07:16:20.776Z,20.40
2019-02-02T07:18:47.615Z,20.40
2019-02-02T07:21:14.151Z,20.40
2019-02-02T07:23:40.684Z,20.40
2019-02-02T07:26:07.223Z,20.40
2019-02-02T07:28:34.061Z,20.40
2019-02-02T07:31:00.892Z,20.40
2019-02-02T07:33:27.441Z,20.40
2019-02-02T07:35:54.300Z,20.40
2019-02-02T07:38:21.125Z,20.40
2019-02-02T07:40:47.654Z,20.40
2019-02-02T07:43:14.500Z,20.40
2019-02-02T07:45:41.032Z,20.40
2019-02-02T07:48:07.872Z,20.40
2019-02-02T07:50:34.409Z,20.40
2019-02-02T07:53:01.249Z,20.40
2019-02-02T07:55:28.091Z,20.40
2019-02-02T07:57:54.629Z,20.40
2019-02-02T08:00:21.499Z,20.40
2019-02-02T08:02:48.314Z,20.40
2019-02-02T08:05:14.846Z,20.40
2019-02-02T08:07:41.685Z,20.40
2019-02-02T08:10:08.220Z,20.40
2019-02-02T08:12:34.754Z,20.40
2019-02-02T08:15:01.287Z,20.40
2019-02-02T08:17:27.824Z,20.40
2019-02-02T08:19:54.664Z,20.40
2019-02-02T08:22:21.199Z,20.40
2019-02-02T08:24:47.740Z,20.40
2019-02-02T08:27:14.269Z,20.30
2019-02-02T08:29:40.806Z,20.40
2019-02-02T08:32:07.629Z,20.40
2019-02-02T08:34:34.179Z,20.40
2019-02-02T08:37:01.020Z,20.30
2019-02-02T08:39:29.260Z,20.30
2019-02-02T08:41:55.934Z,20.40
2019-02-02T08:44:22.468Z,20.30
2019-02-02T08:46:49.308Z,20.40
2019-02-02T08:49:15.843Z,20.30
2019-02-02T08:51:42.675Z,20.30
2019-02-02T08:54:09.221Z,20.30
2019-02-02T08:56:36.061Z,20.30
2019-02-02T08:59:02.595Z,20.30
2019-02-02T09:01:29.131Z,20.30
2019-02-02T09:03:55.679Z,20.30
2019-02-02T09:06:22.234Z,20.30
2019-02-02T09:08:49.040Z,20.30
2019-02-02T09:11:15.576Z,20.30
2019-02-02T09:13:42.109Z,20.30
2019-02-02T09:16:08.646Z,20.30
2019-02-02T09:18:35.179Z,20.30
2019-02-02T09:21:02.024Z,20.30
2019-02-02T09:23:28.564Z,20.30
2019-02-02T09:25:55.093Z,20.30
2019-02-02T09:28:21.625Z,20.30
2019-02-02T09:30:48.162Z,20.30
2019-02-02T09:33:15.002Z,20.40
2019-02-02T09:35:41.844Z,20.30
2019-02-02T09:38:08.381Z,20.30
2019-02-02T09:40:35.218Z,20.40
2019-02-02T09:43:01.751Z,20.40
2019-02-02T09:45:28.904Z,20.40
2019-02-02T09:47:55.438Z,20.40
2019-02-02T09:50:21.946Z,20.40
2019-02-02T09:52:48.505Z,20.40
2019-02-02T09:55:15.049Z,20.40
2019-02-02T09:57:41.881Z,20.40
2019-02-02T10:00:08.418Z,20.40
2019-02-02T10:02:34.951Z,20.40
2019-02-02T10:05:01.486Z,20.40
2019-02-02T10:07:28.058Z,20.40
2019-02-02T10:09:54.862Z,20.40
2019-02-02T10:12:21.396Z,20.30
2019-02-02T10:14:47.929Z,20.30
2019-02-02T10:17:14.466Z,20.40
2019-02-02T10:19:40.999Z,20.40
2019-02-02T10:22:07.839Z,20.40
2019-02-02T10:24:34.378Z,20.30
2019-02-02T10:27:01.219Z,20.40
2019-02-02T10:29:27.659Z,20.30
2019-02-02T10:31:54.285Z,20.40
2019-02-02T10:34:21.127Z,20.30
2019-02-02T10:36:47.639Z,20.30
2019-02-02T10:39:14.195Z,20.30
2019-02-02T10:41:41.038Z,20.40
2019-02-02T10:44:07.572Z,20.40
2019-02-02T10:46:34.436Z,20.40
2019-02-02T10:49:00.952Z,20.40
2019-02-02T10:51:27.483Z,20.40
2019-02-02T10:53:54.018Z,20.40
2019-02-02T10:56:20.553Z,20.40
2019-02-02T10:58:47.392Z,20.40
2019-02-02T11:01:13.932Z,20.40
2019-02-02T11:03:40.462Z,20.40
2019-02-02T11:06:07.362Z,20.40
2019-02-02T11:08:34.175Z,20.40
2019-02-02T11:11:01.063Z,20.40
2019-02-02T11:13:28.210Z,20.40
2019-02-02T11:15:54.998Z,20.40
2019-02-02T11:18:21.568Z,20.40
2019-02-02T11:20:48.390Z,20.40
2019-02-02T11:23:15.234Z,20.40
2019-02-02T11:25:42.141Z,20.40
2019-02-02T11:28:08.924Z,20.40
2019-02-02T11:30:35.765Z,20.40
2019-02-02T11:33:02.562Z,20.50
2019-02-02T11:35:29.389Z,20.50
2019-02-02T11:37:55.938Z,20.60
2019-02-02T11:40:22.782Z,20.60
2019-02-02T11:42:49.318Z,20.70
2019-02-02T11:45:15.848Z,20.90
2019-02-02T11:47:42.691Z,21.00
2019-02-02T11:50:09.532Z,21.20
2019-02-02T11:52:36.375Z,21.40
2019-02-02T11:55:02.908Z,21.50
2019-02-02T11:57:29.443Z,21.50
2019-02-02T11:59:56.284Z,21.70
2019-02-02T12:02:22.822Z,21.80
2019-02-02T12:04:49.661Z,22.00
2019-02-02T12:07:16.195Z,22.00
2019-02-02T12:09:43.039Z,22.00
2019-02-02T12:12:09.878Z,21.90
2019-02-02T12:14:36.413Z,21.60
2019-02-02T12:17:02.949Z,21.40
2019-02-02T12:19:29.486Z,21.30
2019-02-02T12:21:56.328Z,21.20
2019-02-02T12:24:22.862Z,21.00
2019-02-02T12:26:49.702Z,21.00
2019-02-02T12:29:16.544Z,21.00
2019-02-02T12:31:43.078Z,20.90
2019-02-02T12:34:09.611Z,20.90
2019-02-02T12:36:36.456Z,20.90
2019-02-02T12:39:02.988Z,20.80
2019-02-02T12:41:29.521Z,20.80
2019-02-02T12:43:56.364Z,20.80
2019-02-02T12:46:22.902Z,20.80
2019-02-02T12:48:49.511Z,20.80
2019-02-02T12:51:16.273Z,20.80
2019-02-02T12:53:42.837Z,20.70
2019-02-02T12:56:09.349Z,20.70
2019-02-02T12:58:35.855Z,20.70
2019-02-02T13:01:02.721Z,20.70
2019-02-02T13:03:29.255Z,20.70
2019-02-02T13:05:55.788Z,20.60
2019-02-02T13:08:22.372Z,20.60
2019-02-02T13:10:49.165Z,20.60
2019-02-02T13:13:15.703Z,20.60
2019-02-02T13:15:42.239Z,20.60
2019-02-02T13:18:08.767Z,20.60
2019-02-02T13:20:35.609Z,20.60
2019-02-02T13:23:02.452Z,20.50
2019-02-02T13:25:29.292Z,20.60
2019-02-02T13:27:55.827Z,20.50
2019-02-02T13:30:22.673Z,20.50
2019-02-02T13:32:50.244Z,20.50
2019-02-02T13:35:16.967Z,20.50
2019-02-02T13:37:43.581Z,20.50
2019-02-02T13:40:10.343Z,20.50
2019-02-02T13:42:37.184Z,20.50
2019-02-02T13:45:06.880Z,20.50
2019-02-02T13:47:32.098Z,20.50
2019-02-02T13:49:58.939Z,20.50
2019-02-02T13:52:25.780Z,20.40
2019-02-02T13:54:52.315Z,20.40
2019-02-02T13:57:18.849Z,20.40
2019-02-02T13:59:45.690Z,20.40
2019-02-02T14:02:12.532Z,20.40
2019-02-02T14:04:39.579Z,20.40
2019-02-02T14:07:17.516Z,20.40
2019-02-02T14:09:34.293Z,20.40
2019-02-02T14:12:00.822Z,20.40
2019-02-02T14:14:27.438Z,20.40
2019-02-02T14:16:54.196Z,20.40
2019-02-02T14:19:20.734Z,20.40
2019-02-02T14:21:47.266Z,20.30
2019-02-02T14:24:13.800Z,20.30
2019-02-02T14:26:40.950Z,20.30
2019-02-02T14:29:07.794Z,20.30
2019-02-02T14:31:34.325Z,20.30
2019-02-02T14:34:01.166Z,20.30
2019-02-02T14:36:27.703Z,20.30
2019-02-02T14:38:54.543Z,20.30
2019-02-02T14:41:21.385Z,20.30
2019-02-02T14:43:47.920Z,20.30
2019-02-02T14:46:14.762Z,20.30
2019-02-02T14:48:41.296Z,20.30
2019-02-02T14:51:08.129Z,20.20
2019-02-02T14:53:34.673Z,20.30
2019-02-02T14:56:01.518Z,20.20
2019-02-02T14:58:28.051Z,20.30
2019-02-02T15:00:54.586Z,20.30
2019-02-02T15:03:25.806Z,20.20
2019-02-02T15:05:49.495Z,20.30
2019-02-02T15:08:16.030Z,20.30
2019-02-02T15:10:42.567Z,20.20
2019-02-02T15:13:09.099Z,20.20
2019-02-02T15:15:35.954Z,20.20
2019-02-02T15:18:02.477Z,20.20
2019-02-02T15:20:29.319Z,20.20
2019-02-02T15:22:56.162Z,20.20
2019-02-02T15:25:22.692Z,20.20
2019-02-02T15:27:49.410Z,20.20
2019-02-02T15:30:16.071Z,20.20
2019-02-02T15:32:42.911Z,20.20
2019-02-02T15:35:09.444Z,20.20
2019-02-02T15:37:35.981Z,20.10
2019-02-02T15:40:02.821Z,20.20
2019-02-02T15:42:29.355Z,20.20
2019-02-02T15:44:56.198Z,20.10
2019-02-02T15:47:23.040Z,20.10
2019-02-02T15:49:49.574Z,20.10
2019-02-02T15:52:16.414Z,20.10
2019-02-02T15:54:43.258Z,20.10
2019-02-02T15:57:09.791Z,20.10
2019-02-02T15:59:38.763Z,20.10
2019-02-02T16:02:04.707Z,20.10
2019-02-02T16:04:31.550Z,20.10
2019-02-02T16:06:58.391Z,20.10
2019-02-02T16:09:24.898Z,20.10
2019-02-02T16:11:51.456Z,20.10
2019-02-02T16:14:18.273Z,20.10
2019-02-02T16:16:45.141Z,20.10
2019-02-02T16:19:12.063Z,20.10
2019-02-02T16:21:38.822Z,20.10
2019-02-02T16:24:05.357Z,20.00
2019-02-02T16:26:31.913Z,20.10
2019-02-02T16:28:58.734Z,20.10
2019-02-02T16:31:25.269Z,20.00
2019-02-02T16:34:01.773Z,20.00
2019-02-02T16:36:20.216Z,20.10
2019-02-02T16:38:46.714Z,20.00
2019-02-02T16:41:13.555Z,20.00
2019-02-02T16:43:40.400Z,20.00
2019-02-02T16:46:06.934Z,20.00
2019-02-02T16:48:33.469Z,20.00
2019-02-02T16:51:00.308Z,20.00
2019-02-02T16:53:27.156Z,20.00
2019-02-02T16:55:53.687Z,20.00
2019-02-02T16:58:20.529Z,20.00
2019-02-02T17:00:47.060Z,20.00
2019-02-02T17:03:13.595Z,20.00
2019-02-02T17:05:40.443Z,20.00
2019-02-02T17:08:06.972Z,20.00
2019-02-02T17:10:33.579Z,20.00
2019-02-02T17:13:00.657Z,20.00
2019-02-02T17:15:27.195Z,20.00
2019-02-02T17:17:54.032Z,20.00
2019-02-02T17:20:20.567Z,20.00
2019-02-02T17:22:47.407Z,20.00
2019-02-02T17:25:13.941Z,20.00
2019-02-02T17:27:40.477Z,20.00
2019-02-02T17:30:07.321Z,20.00
2019-02-02T17:32:34.160Z,20.00
2019-02-02T17:35:00.779Z,20.00
2019-02-02T17:37:27.536Z,19.90
2019-02-02T17:39:54.071Z,19.90
2019-02-02T17:42:20.912Z,19.90
2019-02-02T17:44:47.450Z,19.90
2019-02-02T17:47:14.301Z,20.00
2019-02-02T17:49:41.363Z,19.90
2019-02-02T17:52:07.970Z,19.90
2019-02-02T17:54:35.654Z,19.90
2019-02-02T17:57:02.273Z,19.90
2019-02-02T17:59:30.124Z,19.90
2019-02-02T18:01:56.873Z,19.90
2019-02-02T18:04:26.384Z,19.90
2019-02-02T18:06:51.785Z,19.90
2019-02-02T18:09:19.246Z,19.90
2019-02-02T18:11:45.777Z,19.90
2019-02-02T18:14:12.619Z,19.90
2019-02-02T18:16:39.460Z,19.90
2019-02-02T18:19:06.305Z,19.90
2019-02-02T18:21:33.153Z,19.90
2019-02-02T18:23:59.679Z,19.90
2019-02-02T18:26:26.216Z,19.90
2019-02-02T18:28:53.878Z,19.90
2019-02-02T18:31:20.821Z,19.90
2019-02-02T18:33:47.659Z,19.90
2019-02-02T18:36:14.502Z,19.90
2019-02-02T18:38:41.038Z,19.90
2019-02-02T18:41:07.572Z,19.90
2019-02-02T18:43:34.416Z,19.90
2019-02-02T18:48:49.600Z,19.80
2019-02-02T18:51:16.139Z,19.90
2019-02-02T18:53:42.670Z,19.80
2019-02-02T18:56:09.206Z,19.80
2019-02-02T18:58:36.043Z,19.80
2019-02-02T19:01:02.886Z,19.90
2019-02-02T19:03:29.732Z,19.80
2019-02-02T19:05:56.570Z,19.80
2019-02-02T19:08:23.104Z,19.80
2019-02-02T19:10:49.638Z,19.80
2019-02-02T19:13:16.482Z,19.80
2019-02-02T19:15:43.014Z,19.80
2019-02-02T19:18:09.552Z,19.80
2019-02-02T19:20:36.082Z,19.80
2019-02-02T19:23:02.619Z,19.80
2019-02-02T19:25:29.459Z,19.80
2019-02-02T19:27:55.997Z,19.80
2019-02-02T19:30:22.845Z,19.80
2019-02-02T19:32:49.371Z,19.80
2019-02-02T19:35:16.645Z,19.80
2019-02-02T19:37:43.367Z,19.80
2019-02-02T19:40:09.897Z,19.80
2019-02-02T19:42:36.431Z,19.80
2019-02-02T19:45:02.965Z,19.80
2019-02-02T19:47:29.501Z,19.80
2019-02-02T19:49:56.341Z,19.80
2019-02-02T19:52:22.877Z,19.80
2019-02-02T19:54:49.736Z,19.80
2019-02-02T19:57:16.251Z,19.80
2019-02-02T19:59:42.790Z,19.80
2019-02-02T20:02:09.629Z,19.80
2019-02-02T20:04:36.168Z,19.80
2019-02-02T20:07:03.003Z,19.80
2019-02-02T20:09:29.517Z,19.70
2019-02-02T20:11:56.075Z,19.70
2019-02-02T20:14:22.916Z,19.70
2019-02-02T20:16:49.763Z,19.80
2019-02-02T20:19:16.291Z,19.70
2019-02-02T20:21:44.702Z,19.70
2019-02-02T20:24:11.203Z,19.70
2019-02-02T20:26:38.046Z,19.70
2019-02-02T20:29:04.579Z,19.70
2019-02-02T20:31:31.426Z,19.70
2019-02-02T20:33:57.956Z,19.70
2019-02-02T20:36:24.797Z,19.70
2019-02-02T20:38:51.639Z,19.70
2019-02-02T20:41:18.484Z,19.70
2019-02-02T20:43:45.322Z,19.70
2019-02-02T20:46:12.165Z,19.70
2019-02-02T20:48:38.699Z,19.70
2019-02-02T20:51:05.666Z,19.70
2019-02-02T20:53:32.385Z,19.70
2019-02-02T20:55:58.916Z,19.70
2019-02-02T20:58:25.452Z,19.70
2019-02-02T21:00:51.989Z,19.70
2019-02-02T21:03:18.827Z,19.70
2019-02-02T21:05:52.577Z,19.70
2019-02-02T21:08:14.355Z,19.70
2019-02-02T21:10:40.891Z,19.70
2019-02-02T21:13:07.736Z,19.70
2019-02-02T21:15:34.572Z,19.70
2019-02-02T21:18:01.419Z,19.70
2019-02-02T21:20:27.948Z,19.70
2019-02-02T21:22:54.829Z,19.70
2019-02-02T21:25:21.631Z,19.60
2019-02-02T21:27:48.474Z,19.70
2019-02-02T21:30:15.007Z,19.60
2019-02-02T21:32:41.518Z,19.60
2019-02-02T21:35:08.151Z,19.60
2019-02-02T21:37:35.535Z,19.70
2019-02-02T21:40:02.783Z,19.60
2019-02-02T21:42:29.522Z,19.70
2019-02-02T21:44:56.059Z,19.60
2019-02-02T21:47:22.591Z,19.60
2019-02-02T21:49:49.159Z,19.60
2019-02-02T21:52:16.276Z,19.60
2019-02-02T21:54:43.424Z,19.60
2019-02-02T21:57:09.961Z,19.60
2019-02-02T21:59:36.492Z,19.60
2019-02-02T22:02:03.335Z,19.60
2019-02-02T22:04:30.176Z,19.60
2019-02-02T22:06:56.714Z,19.60
2019-02-02T22:09:23.552Z,19.60
2019-02-02T22:11:50.088Z,19.60
2019-02-02T22:14:16.622Z,19.60
2019-02-02T22:16:43.465Z,19.60
2019-02-02T22:19:10.308Z,19.60
2019-02-02T22:21:36.840Z,19.60
2019-02-02T22:24:03.682Z,19.60
2019-02-02T22:26:30.831Z,19.60
2019-02-02T22:28:57.976Z,19.60
2019-02-02T22:31:24.820Z,19.60
2019-02-02T22:33:51.269Z,19.60
2019-02-02T22:36:26.927Z,19.60
2019-02-02T22:38:46.269Z,19.60
2019-02-02T22:41:13.112Z,19.60
2019-02-02T22:43:39.953Z,19.60
2019-02-02T22:46:06.486Z,19.60
2019-02-02T22:48:33.022Z,19.60
2019-02-02T22:51:01.083Z,19.60
2019-02-02T22:53:27.935Z,19.60
2019-02-02T22:55:54.775Z,19.60
2019-02-02T22:58:21.308Z,19.60
2019-02-02T23:00:47.948Z,19.50
2019-02-02T23:03:14.683Z,19.60
2019-02-02T23:05:41.220Z,19.50
2019-02-02T23:08:07.757Z,19.60
2019-02-02T23:10:34.289Z,19.50
2019-02-02T23:13:00.827Z,19.50
2019-02-02T23:15:27.974Z,19.50
2019-02-02T23:17:54.813Z,19.60
2019-02-02T23:20:21.348Z,19.50
2019-02-02T23:22:47.905Z,19.50
2019-02-02T23:25:14.416Z,19.50
2019-02-02T23:27:41.258Z,19.50
2019-02-02T23:30:08.106Z,19.50
2019-02-02T23:32:34.636Z,19.50
2019-02-02T23:35:01.177Z,19.50
2019-02-02T23:37:28.321Z,19.50
2019-02-02T23:39:54.872Z,19.50
2019-02-02T23:42:21.695Z,19.50
2019-02-02T23:44:49.155Z,19.50
2019-02-02T23:47:16.299Z,19.50
2019-02-02T23:49:42.834Z,19.50
2019-02-02T23:52:09.367Z,19.50
2019-02-02T23:54:35.902Z,19.50
2019-02-02T23:57:02.438Z,19.50
2019-02-02T23:59:29.382Z,19.50
